sensor_id;sensor_type;location;lat;lon;timestamp;P1;durP1;ratioP1;P2;durP2;ratioP2
18172;SDS011;9211;48.818;9.312;2022-10-28T00:00:07;13.32;;;4.30;;
18172;SDS011;9211;48.818;9.312;2022-10-28T00:02:35;11.75;;;4.63;;
18172;SDS011;9211;48.818;9.312;2022-10-28T00:05:05;11.60;;;4.13;;
18172;SDS011;9211;48.818;9.312;2022-10-28T00:07:32;12.10;;;4.38;;
18172;SDS011;9211;48.818;9.312;2022-10-28T00:10:00;12.60;;;4.28;;
18172;SDS011;9211;48.818;9.312;2022-10-28T00:12:27;10.98;;;4.20;;
18172;SDS011;9211;48.818;9.312;2022-10-28T00:14:54;12.35;;;4.20;;
18172;SDS011;9211;48.818;9.312;2022-10-28T00:17:21;13.18;;;4.00;;
18172;SDS011;9211;48.818;9.312;2022-10-28T00:19:48;9.43;;;4.25;;
18172;SDS011;9211;48.818;9.312;2022-10-28T00:22:15;12.77;;;4.55;;
18172;SDS011;9211;48.818;9.312;2022-10-28T00:24:42;10.57;;;4.32;;
18172;SDS011;9211;48.818;9.312;2022-10-28T00:27:10;12.40;;;4.07;;
18172;SDS011;9211;48.818;9.312;2022-10-28T00:29:37;13.52;;;4.40;;
18172;SDS011;9211;48.818;9.312;2022-10-28T00:32:04;10.68;;;4.38;;
18172;SDS011;9211;48.818;9.312;2022-10-28T00:34:31;8.60;;;4.10;;
18172;SDS011;9211;48.818;9.312;2022-10-28T00:36:58;11.50;;;4.20;;
18172;SDS011;9211;48.818;9.312;2022-10-28T00:39:25;7.57;;;3.73;;
18172;SDS011;9211;48.818;9.312;2022-10-28T00:41:54;10.35;;;4.57;;
18172;SDS011;9211;48.818;9.312;2022-10-28T00:47:18;13.95;;;4.15;;
18172;SDS011;9211;48.818;9.312;2022-10-28T00:49:55;12.77;;;4.35;;
18172;SDS011;9211;48.818;9.312;2022-10-28T00:52:25;10.60;;;4.20;;
18172;SDS011;9211;48.818;9.312;2022-10-28T00:54:54;13.25;;;4.38;;
18172;SDS011;9211;48.818;9.312;2022-10-28T00:57:24;11.80;;;3.97;;
18172;SDS011;9211;48.818;9.312;2022-10-28T00:59:58;13.45;;;4.40;;
18172;SDS011;9211;48.818;9.312;2022-10-28T01:02:27;10.40;;;4.00;;
18172;SDS011;9211;48.818;9.312;2022-10-28T01:04:54;12.00;;;4.13;;
18172;SDS011;9211;48.818;9.312;2022-10-28T01:07:21;16.75;;;4.15;;
18172;SDS011;9211;48.818;9.312;2022-10-28T01:09:49;9.88;;;3.80;;
18172;SDS011;9211;48.818;9.312;2022-10-28T01:12:17;11.95;;;4.07;;
18172;SDS011;9211;48.818;9.312;2022-10-28T01:14:56;9.77;;;3.92;;
18172;SDS011;9211;48.818;9.312;2022-10-28T01:17:34;11.07;;;4.10;;
18172;SDS011;9211;48.818;9.312;2022-10-28T01:20:26;11.43;;;4.22;;
18172;SDS011;9211;48.818;9.312;2022-10-28T01:23:09;12.00;;;4.18;;
18172;SDS011;9211;48.818;9.312;2022-10-28T01:31:27;9.93;;;4.30;;
18172;SDS011;9211;48.818;9.312;2022-10-28T01:34:04;8.20;;;4.03;;
18172;SDS011;9211;48.818;9.312;2022-10-28T01:36:37;11.50;;;4.15;;
18172;SDS011;9211;48.818;9.312;2022-10-28T01:39:12;11.55;;;4.25;;
18172;SDS011;9211;48.818;9.312;2022-10-28T01:41:50;11.20;;;4.40;;
18172;SDS011;9211;48.818;9.312;2022-10-28T01:44:23;12.63;;;3.97;;
18172;SDS011;9211;48.818;9.312;2022-10-28T01:46:56;10.40;;;4.15;;
18172;SDS011;9211;48.818;9.312;2022-10-28T01:49:30;12.10;;;4.40;;
18172;SDS011;9211;48.818;9.312;2022-10-28T01:52:04;10.77;;;4.20;;
18172;SDS011;9211;48.818;9.312;2022-10-28T01:54:36;8.90;;;4.00;;
18172;SDS011;9211;48.818;9.312;2022-10-28T01:57:05;13.80;;;4.45;;
18172;SDS011;9211;48.818;9.312;2022-10-28T01:59:32;13.15;;;4.22;;
18172;SDS011;9211;48.818;9.312;2022-10-28T02:02:02;10.13;;;4.10;;
18172;SDS011;9211;48.818;9.312;2022-10-28T02:04:29;10.07;;;4.10;;
18172;SDS011;9211;48.818;9.312;2022-10-28T02:06:57;13.07;;;4.05;;
18172;SDS011;9211;48.818;9.312;2022-10-28T02:09:28;10.63;;;4.30;;
18172;SDS011;9211;48.818;9.312;2022-10-28T02:12:20;11.43;;;4.15;;
18172;SDS011;9211;48.818;9.312;2022-10-28T02:14:56;12.57;;;4.30;;
18172;SDS011;9211;48.818;9.312;2022-10-28T02:17:33;10.00;;;4.10;;
18172;SDS011;9211;48.818;9.312;2022-10-28T02:20:12;12.82;;;4.70;;
18172;SDS011;9211;48.818;9.312;2022-10-28T02:22:48;11.57;;;4.57;;
18172;SDS011;9211;48.818;9.312;2022-10-28T02:25:20;10.93;;;4.20;;
18172;SDS011;9211;48.818;9.312;2022-10-28T02:27:53;11.65;;;4.32;;
18172;SDS011;9211;48.818;9.312;2022-10-28T02:30:24;10.55;;;3.97;;
18172;SDS011;9211;48.818;9.312;2022-10-28T02:32:57;9.75;;;3.72;;
18172;SDS011;9211;48.818;9.312;2022-10-28T02:35:27;8.95;;;3.90;;
18172;SDS011;9211;48.818;9.312;2022-10-28T02:37:57;14.18;;;4.20;;
18172;SDS011;9211;48.818;9.312;2022-10-28T02:40:28;10.43;;;3.70;;
18172;SDS011;9211;48.818;9.312;2022-10-28T02:42:58;10.02;;;3.90;;
18172;SDS011;9211;48.818;9.312;2022-10-28T02:45:30;8.82;;;3.90;;
18172;SDS011;9211;48.818;9.312;2022-10-28T02:48:02;8.70;;;4.30;;
18172;SDS011;9211;48.818;9.312;2022-10-28T02:50:33;10.70;;;4.07;;
18172;SDS011;9211;48.818;9.312;2022-10-28T02:53:05;12.40;;;4.37;;
18172;SDS011;9211;48.818;9.312;2022-10-28T02:55:37;11.07;;;3.95;;
18172;SDS011;9211;48.818;9.312;2022-10-28T02:58:08;10.60;;;4.30;;
18172;SDS011;9211;48.818;9.312;2022-10-28T03:00:36;10.18;;;3.78;;
18172;SDS011;9211;48.818;9.312;2022-10-28T03:03:10;13.48;;;3.80;;
18172;SDS011;9211;48.818;9.312;2022-10-28T03:05:37;9.35;;;4.03;;
18172;SDS011;9211;48.818;9.312;2022-10-28T03:08:04;10.40;;;3.95;;
18172;SDS011;9211;48.818;9.312;2022-10-28T03:10:31;10.68;;;4.63;;
18172;SDS011;9211;48.818;9.312;2022-10-28T03:12:58;9.25;;;3.90;;
18172;SDS011;9211;48.818;9.312;2022-10-28T03:15:25;12.05;;;4.00;;
18172;SDS011;9211;48.818;9.312;2022-10-28T03:17:52;10.23;;;3.97;;
18172;SDS011;9211;48.818;9.312;2022-10-28T03:20:20;8.23;;;3.80;;
18172;SDS011;9211;48.818;9.312;2022-10-28T03:22:47;12.38;;;4.32;;
18172;SDS011;9211;48.818;9.312;2022-10-28T03:25:14;10.80;;;4.68;;
18172;SDS011;9211;48.818;9.312;2022-10-28T03:27:41;14.98;;;4.40;;
18172;SDS011;9211;48.818;9.312;2022-10-28T03:30:08;12.57;;;4.22;;
18172;SDS011;9211;48.818;9.312;2022-10-28T03:32:36;8.80;;;3.90;;
18172;SDS011;9211;48.818;9.312;2022-10-28T03:35:06;13.50;;;4.30;;
18172;SDS011;9211;48.818;9.312;2022-10-28T03:37:35;11.67;;;4.53;;
18172;SDS011;9211;48.818;9.312;2022-10-28T03:40:02;9.60;;;4.28;;
18172;SDS011;9211;48.818;9.312;2022-10-28T03:42:32;10.90;;;4.30;;
18172;SDS011;9211;48.818;9.312;2022-10-28T03:44:59;11.98;;;4.20;;
18172;SDS011;9211;48.818;9.312;2022-10-28T03:47:26;11.40;;;4.30;;
18172;SDS011;9211;48.818;9.312;2022-10-28T03:49:53;10.15;;;4.25;;
18172;SDS011;9211;48.818;9.312;2022-10-28T03:52:20;10.10;;;3.90;;
18172;SDS011;9211;48.818;9.312;2022-10-28T03:54:48;12.13;;;4.30;;
18172;SDS011;9211;48.818;9.312;2022-10-28T03:57:15;12.38;;;4.05;;
18172;SDS011;9211;48.818;9.312;2022-10-28T03:59:42;11.73;;;4.38;;
18172;SDS011;9211;48.818;9.312;2022-10-28T04:02:09;14.50;;;4.20;;
18172;SDS011;9211;48.818;9.312;2022-10-28T04:04:36;13.40;;;4.30;;
18172;SDS011;9211;48.818;9.312;2022-10-28T04:07:03;11.13;;;4.25;;
18172;SDS011;9211;48.818;9.312;2022-10-28T04:09:30;8.48;;;3.72;;
18172;SDS011;9211;48.818;9.312;2022-10-28T04:11:58;9.85;;;4.20;;
18172;SDS011;9211;48.818;9.312;2022-10-28T04:14:25;10.88;;;4.40;;
18172;SDS011;9211;48.818;9.312;2022-10-28T04:16:52;8.10;;;4.22;;
18172;SDS011;9211;48.818;9.312;2022-10-28T04:19:19;11.70;;;4.15;;
18172;SDS011;9211;48.818;9.312;2022-10-28T04:21:46;11.00;;;4.20;;
18172;SDS011;9211;48.818;9.312;2022-10-28T04:24:13;10.77;;;4.43;;
18172;SDS011;9211;48.818;9.312;2022-10-28T04:26:40;10.85;;;4.60;;
18172;SDS011;9211;48.818;9.312;2022-10-28T04:29:08;11.85;;;4.32;;
18172;SDS011;9211;48.818;9.312;2022-10-28T04:31:35;10.68;;;4.07;;
18172;SDS011;9211;48.818;9.312;2022-10-28T04:34:02;10.82;;;4.13;;
18172;SDS011;9211;48.818;9.312;2022-10-28T04:36:29;8.95;;;3.83;;
18172;SDS011;9211;48.818;9.312;2022-10-28T04:38:56;11.95;;;4.32;;
18172;SDS011;9211;48.818;9.312;2022-10-28T04:41:23;12.85;;;4.10;;
18172;SDS011;9211;48.818;9.312;2022-10-28T04:43:50;14.30;;;4.38;;
18172;SDS011;9211;48.818;9.312;2022-10-28T04:46:18;11.23;;;3.90;;
18172;SDS011;9211;48.818;9.312;2022-10-28T04:48:45;12.13;;;4.43;;
18172;SDS011;9211;48.818;9.312;2022-10-28T04:51:13;9.55;;;3.90;;
18172;SDS011;9211;48.818;9.312;2022-10-28T04:53:40;9.57;;;4.13;;
18172;SDS011;9211;48.818;9.312;2022-10-28T04:56:07;10.98;;;4.30;;
18172;SDS011;9211;48.818;9.312;2022-10-28T04:58:34;11.53;;;4.13;;
18172;SDS011;9211;48.818;9.312;2022-10-28T05:01:03;8.80;;;4.25;;
18172;SDS011;9211;48.818;9.312;2022-10-28T05:03:32;10.50;;;4.00;;
18172;SDS011;9211;48.818;9.312;2022-10-28T05:06:00;9.63;;;4.20;;
18172;SDS011;9211;48.818;9.312;2022-10-28T05:08:27;10.15;;;4.18;;
18172;SDS011;9211;48.818;9.312;2022-10-28T05:10:54;10.73;;;3.90;;
18172;SDS011;9211;48.818;9.312;2022-10-28T05:13:21;9.30;;;4.10;;
18172;SDS011;9211;48.818;9.312;2022-10-28T05:15:48;13.45;;;4.55;;
18172;SDS011;9211;48.818;9.312;2022-10-28T05:18:15;9.10;;;4.15;;
18172;SDS011;9211;48.818;9.312;2022-10-28T05:20:44;10.60;;;4.32;;
18172;SDS011;9211;48.818;9.312;2022-10-28T05:23:11;12.27;;;4.20;;
18172;SDS011;9211;48.818;9.312;2022-10-28T05:25:37;9.83;;;3.60;;
18172;SDS011;9211;48.818;9.312;2022-10-28T05:28:05;10.23;;;4.07;;
18172;SDS011;9211;48.818;9.312;2022-10-28T05:30:32;8.70;;;3.72;;
18172;SDS011;9211;48.818;9.312;2022-10-28T05:32:59;9.52;;;3.90;;
18172;SDS011;9211;48.818;9.312;2022-10-28T05:35:26;11.15;;;3.92;;
18172;SDS011;9211;48.818;9.312;2022-10-28T05:37:55;12.20;;;4.18;;
18172;SDS011;9211;48.818;9.312;2022-10-28T05:40:22;10.90;;;4.20;;
18172;SDS011;9211;48.818;9.312;2022-10-28T05:42:50;8.45;;;4.50;;
18172;SDS011;9211;48.818;9.312;2022-10-28T05:45:16;13.00;;;4.70;;
18172;SDS011;9211;48.818;9.312;2022-10-28T05:47:44;11.50;;;4.97;;
18172;SDS011;9211;48.818;9.312;2022-10-28T05:50:12;12.05;;;4.82;;
18172;SDS011;9211;48.818;9.312;2022-10-28T05:52:43;13.63;;;4.85;;
18172;SDS011;9211;48.818;9.312;2022-10-28T05:55:12;9.48;;;4.32;;
18172;SDS011;9211;48.818;9.312;2022-10-28T05:57:39;10.82;;;4.75;;
18172;SDS011;9211;48.818;9.312;2022-10-28T06:00:07;7.70;;;4.40;;
18172;SDS011;9211;48.818;9.312;2022-10-28T06:02:38;10.50;;;4.88;;
18172;SDS011;9211;48.818;9.312;2022-10-28T06:05:05;13.48;;;4.57;;
18172;SDS011;9211;48.818;9.312;2022-10-28T06:07:32;14.27;;;4.93;;
18172;SDS011;9211;48.818;9.312;2022-10-28T06:10:00;12.27;;;5.15;;
18172;SDS011;9211;48.818;9.312;2022-10-28T06:12:28;10.15;;;4.53;;
18172;SDS011;9211;48.818;9.312;2022-10-28T06:14:55;13.30;;;4.20;;
18172;SDS011;9211;48.818;9.312;2022-10-28T06:17:23;13.18;;;4.30;;
18172;SDS011;9211;48.818;9.312;2022-10-28T06:19:50;10.32;;;4.20;;
18172;SDS011;9211;48.818;9.312;2022-10-28T06:22:17;15.80;;;4.43;;
18172;SDS011;9211;48.818;9.312;2022-10-28T06:24:44;11.43;;;4.72;;
18172;SDS011;9211;48.818;9.312;2022-10-28T06:27:11;9.18;;;4.15;;
18172;SDS011;9211;48.818;9.312;2022-10-28T06:29:40;11.45;;;4.07;;
18172;SDS011;9211;48.818;9.312;2022-10-28T06:32:08;13.07;;;4.70;;
18172;SDS011;9211;48.818;9.312;2022-10-28T06:34:35;10.30;;;4.40;;
18172;SDS011;9211;48.818;9.312;2022-10-28T06:37:03;11.35;;;4.15;;
18172;SDS011;9211;48.818;9.312;2022-10-28T06:39:31;10.38;;;4.05;;
18172;SDS011;9211;48.818;9.312;2022-10-28T06:41:58;10.85;;;3.97;;
18172;SDS011;9211;48.818;9.312;2022-10-28T06:44:25;13.55;;;4.72;;
18172;SDS011;9211;48.818;9.312;2022-10-28T06:46:53;13.18;;;4.45;;
18172;SDS011;9211;48.818;9.312;2022-10-28T06:49:21;10.98;;;4.50;;
18172;SDS011;9211;48.818;9.312;2022-10-28T06:51:48;11.73;;;4.03;;
18172;SDS011;9211;48.818;9.312;2022-10-28T06:54:15;12.00;;;4.35;;
18172;SDS011;9211;48.818;9.312;2022-10-28T06:56:42;13.93;;;4.47;;
18172;SDS011;9211;48.818;9.312;2022-10-28T06:59:10;10.13;;;4.30;;
18172;SDS011;9211;48.818;9.312;2022-10-28T07:01:37;10.40;;;4.68;;
18172;SDS011;9211;48.818;9.312;2022-10-28T07:04:05;12.95;;;5.15;;
18172;SDS011;9211;48.818;9.312;2022-10-28T07:06:36;12.52;;;4.72;;
18172;SDS011;9211;48.818;9.312;2022-10-28T07:09:03;11.00;;;4.63;;
18172;SDS011;9211;48.818;9.312;2022-10-28T07:11:29;12.20;;;4.47;;
18172;SDS011;9211;48.818;9.312;2022-10-28T07:13:56;11.32;;;4.40;;
18172;SDS011;9211;48.818;9.312;2022-10-28T07:16:23;12.80;;;4.60;;
18172;SDS011;9211;48.818;9.312;2022-10-28T07:18:50;10.23;;;4.38;;
18172;SDS011;9211;48.818;9.312;2022-10-28T07:21:19;12.32;;;4.53;;
18172;SDS011;9211;48.818;9.312;2022-10-28T07:23:48;8.55;;;3.78;;
18172;SDS011;9211;48.818;9.312;2022-10-28T07:26:15;11.10;;;4.35;;
18172;SDS011;9211;48.818;9.312;2022-10-28T07:28:42;11.10;;;4.25;;
18172;SDS011;9211;48.818;9.312;2022-10-28T07:31:09;9.48;;;4.30;;
18172;SDS011;9211;48.818;9.312;2022-10-28T07:33:36;10.35;;;3.92;;
18172;SDS011;9211;48.818;9.312;2022-10-28T07:36:03;9.65;;;4.13;;
18172;SDS011;9211;48.818;9.312;2022-10-28T07:38:32;10.43;;;4.30;;
18172;SDS011;9211;48.818;9.312;2022-10-28T07:41:03;14.98;;;4.55;;
18172;SDS011;9211;48.818;9.312;2022-10-28T07:43:34;9.32;;;4.00;;
18172;SDS011;9211;48.818;9.312;2022-10-28T07:46:02;13.90;;;4.47;;
18172;SDS011;9211;48.818;9.312;2022-10-28T07:48:30;10.93;;;4.15;;
18172;SDS011;9211;48.818;9.312;2022-10-28T07:50:58;12.57;;;4.25;;
18172;SDS011;9211;48.818;9.312;2022-10-28T07:53:26;10.48;;;4.13;;
18172;SDS011;9211;48.818;9.312;2022-10-28T07:55:55;11.55;;;4.03;;
18172;SDS011;9211;48.818;9.312;2022-10-28T07:58:23;8.65;;;3.80;;
18172;SDS011;9211;48.818;9.312;2022-10-28T08:00:50;9.57;;;4.07;;
18172;SDS011;9211;48.818;9.312;2022-10-28T08:03:17;8.40;;;3.63;;
18172;SDS011;9211;48.818;9.312;2022-10-28T08:05:44;8.35;;;3.55;;
18172;SDS011;9211;48.818;9.312;2022-10-28T08:08:12;9.73;;;3.70;;
18172;SDS011;9211;48.818;9.312;2022-10-28T08:10:39;9.85;;;3.72;;
18172;SDS011;9211;48.818;9.312;2022-10-28T08:13:07;9.27;;;3.42;;
18172;SDS011;9211;48.818;9.312;2022-10-28T08:15:35;11.82;;;3.63;;
18172;SDS011;9211;48.818;9.312;2022-10-28T08:18:02;10.63;;;3.60;;
18172;SDS011;9211;48.818;9.312;2022-10-28T08:20:29;9.65;;;3.40;;
18172;SDS011;9211;48.818;9.312;2022-10-28T08:22:57;8.57;;;3.50;;
18172;SDS011;9211;48.818;9.312;2022-10-28T08:25:24;8.05;;;3.40;;
18172;SDS011;9211;48.818;9.312;2022-10-28T08:27:50;7.50;;;3.40;;
18172;SDS011;9211;48.818;9.312;2022-10-28T08:30:19;11.05;;;3.67;;
18172;SDS011;9211;48.818;9.312;2022-10-28T08:32:46;8.30;;;3.50;;
18172;SDS011;9211;48.818;9.312;2022-10-28T08:35:13;10.50;;;3.67;;
18172;SDS011;9211;48.818;9.312;2022-10-28T08:37:40;7.97;;;3.67;;
18172;SDS011;9211;48.818;9.312;2022-10-28T08:40:11;9.65;;;3.60;;
18172;SDS011;9211;48.818;9.312;2022-10-28T08:42:40;8.40;;;3.38;;
18172;SDS011;9211;48.818;9.312;2022-10-28T08:45:23;10.30;;;4.00;;
18172;SDS011;9211;48.818;9.312;2022-10-28T08:48:04;6.57;;;3.30;;
18172;SDS011;9211;48.818;9.312;2022-10-28T08:50:42;6.38;;;3.30;;
18172;SDS011;9211;48.818;9.312;2022-10-28T08:53:14;8.30;;;3.35;;
18172;SDS011;9211;48.818;9.312;2022-10-28T08:55:44;10.75;;;3.95;;
18172;SDS011;9211;48.818;9.312;2022-10-28T08:58:15;9.20;;;4.00;;
18172;SDS011;9211;48.818;9.312;2022-10-28T09:00:49;9.00;;;4.22;;
18172;SDS011;9211;48.818;9.312;2022-10-28T09:03:19;8.45;;;4.10;;
18172;SDS011;9211;48.818;9.312;2022-10-28T09:05:48;12.43;;;4.07;;
18172;SDS011;9211;48.818;9.312;2022-10-28T09:08:22;9.65;;;4.13;;
18172;SDS011;9211;48.818;9.312;2022-10-28T09:10:54;10.52;;;4.07;;
18172;SDS011;9211;48.818;9.312;2022-10-28T09:13:31;8.95;;;3.35;;
18172;SDS011;9211;48.818;9.312;2022-10-28T09:16:06;8.75;;;3.67;;
18172;SDS011;9211;48.818;9.312;2022-10-28T09:18:44;8.95;;;4.28;;
18172;SDS011;9211;48.818;9.312;2022-10-28T09:21:17;10.02;;;3.88;;
18172;SDS011;9211;48.818;9.312;2022-10-28T09:23:50;10.37;;;3.97;;
18172;SDS011;9211;48.818;9.312;2022-10-28T09:26:24;13.20;;;4.28;;
18172;SDS011;9211;48.818;9.312;2022-10-28T09:29:00;11.02;;;4.28;;
18172;SDS011;9211;48.818;9.312;2022-10-28T09:31:39;7.97;;;4.13;;
18172;SDS011;9211;48.818;9.312;2022-10-28T09:34:13;10.38;;;3.97;;
18172;SDS011;9211;48.818;9.312;2022-10-28T09:36:50;9.40;;;3.80;;
18172;SDS011;9211;48.818;9.312;2022-10-28T09:39:20;9.20;;;4.13;;
18172;SDS011;9211;48.818;9.312;2022-10-28T09:41:51;8.87;;;4.20;;
18172;SDS011;9211;48.818;9.312;2022-10-28T09:44:20;11.00;;;3.80;;
18172;SDS011;9211;48.818;9.312;2022-10-28T09:46:54;12.00;;;4.17;;
18172;SDS011;9211;48.818;9.312;2022-10-28T09:49:25;10.30;;;4.38;;
18172;SDS011;9211;48.818;9.312;2022-10-28T09:51:57;10.18;;;3.95;;
18172;SDS011;9211;48.818;9.312;2022-10-28T09:54:31;10.45;;;4.30;;
18172;SDS011;9211;48.818;9.312;2022-10-28T09:57:01;9.98;;;3.90;;
18172;SDS011;9211;48.818;9.312;2022-10-28T09:59:29;10.93;;;4.32;;
18172;SDS011;9211;48.818;9.312;2022-10-28T10:01:57;18.42;;;8.25;;
18172;SDS011;9211;48.818;9.312;2022-10-28T10:04:24;12.93;;;5.63;;
18172;SDS011;9211;48.818;9.312;2022-10-28T10:06:55;11.18;;;4.40;;
18172;SDS011;9211;48.818;9.312;2022-10-28T10:09:26;10.68;;;4.03;;
18172;SDS011;9211;48.818;9.312;2022-10-28T10:11:55;11.17;;;4.10;;
18172;SDS011;9211;48.818;9.312;2022-10-28T10:14:28;8.95;;;3.72;;
18172;SDS011;9211;48.818;9.312;2022-10-28T10:17:01;8.57;;;3.50;;
18172;SDS011;9211;48.818;9.312;2022-10-28T10:22:30;7.95;;;3.28;;
18172;SDS011;9211;48.818;9.312;2022-10-28T10:24:58;10.82;;;3.25;;
18172;SDS011;9211;48.818;9.312;2022-10-28T10:27:25;10.48;;;3.10;;
18172;SDS011;9211;48.818;9.312;2022-10-28T10:29:53;9.17;;;2.90;;
18172;SDS011;9211;48.818;9.312;2022-10-28T10:32:24;8.20;;;3.00;;
18172;SDS011;9211;48.818;9.312;2022-10-28T10:34:55;9.93;;;2.90;;
18172;SDS011;9211;48.818;9.312;2022-10-28T10:37:26;6.95;;;2.70;;
18172;SDS011;9211;48.818;9.312;2022-10-28T10:42:44;7.40;;;2.83;;
18172;SDS011;9211;48.818;9.312;2022-10-28T10:45:19;9.38;;;2.90;;
18172;SDS011;9211;48.818;9.312;2022-10-28T10:47:51;9.23;;;3.10;;
18172;SDS011;9211;48.818;9.312;2022-10-28T10:50:33;6.80;;;2.90;;
18172;SDS011;9211;48.818;9.312;2022-10-28T10:53:02;9.75;;;2.78;;
18172;SDS011;9211;48.818;9.312;2022-10-28T10:55:34;7.43;;;2.92;;
18172;SDS011;9211;48.818;9.312;2022-10-28T10:58:04;9.18;;;2.80;;
18172;SDS011;9211;48.818;9.312;2022-10-28T11:00:34;7.97;;;2.45;;
18172;SDS011;9211;48.818;9.312;2022-10-28T11:03:04;11.18;;;2.83;;
18172;SDS011;9211;48.818;9.312;2022-10-28T11:05:38;9.43;;;2.50;;
18172;SDS011;9211;48.818;9.312;2022-10-28T11:08:19;8.02;;;2.58;;
18172;SDS011;9211;48.818;9.312;2022-10-28T11:11:12;7.15;;;2.50;;
18172;SDS011;9211;48.818;9.312;2022-10-28T11:13:40;5.93;;;2.50;;
18172;SDS011;9211;48.818;9.312;2022-10-28T11:16:16;6.45;;;2.40;;
18172;SDS011;9211;48.818;9.312;2022-10-28T11:18:46;8.25;;;2.60;;
18172;SDS011;9211;48.818;9.312;2022-10-28T11:21:21;9.32;;;2.47;;
18172;SDS011;9211;48.818;9.312;2022-10-28T11:24:17;7.22;;;2.40;;
18172;SDS011;9211;48.818;9.312;2022-10-28T11:26:55;8.87;;;2.70;;
18172;SDS011;9211;48.818;9.312;2022-10-28T11:29:29;8.63;;;2.80;;
18172;SDS011;9211;48.818;9.312;2022-10-28T11:35:00;12.57;;;5.07;;
18172;SDS011;9211;48.818;9.312;2022-10-28T11:37:43;8.57;;;3.53;;
18172;SDS011;9211;48.818;9.312;2022-10-28T11:40:21;8.50;;;2.38;;
18172;SDS011;9211;48.818;9.312;2022-10-28T11:43:01;5.63;;;2.15;;
18172;SDS011;9211;48.818;9.312;2022-10-28T11:45:38;6.70;;;1.80;;
18172;SDS011;9211;48.818;9.312;2022-10-28T11:48:14;6.93;;;2.23;;
18172;SDS011;9211;48.818;9.312;2022-10-28T11:50:55;5.65;;;2.10;;
18172;SDS011;9211;48.818;9.312;2022-10-28T11:53:35;7.93;;;2.20;;
18172;SDS011;9211;48.818;9.312;2022-10-28T11:56:16;5.50;;;2.40;;
18172;SDS011;9211;48.818;9.312;2022-10-28T11:58:51;7.80;;;2.53;;
18172;SDS011;9211;48.818;9.312;2022-10-28T12:01:29;4.70;;;2.23;;
18172;SDS011;9211;48.818;9.312;2022-10-28T12:04:06;9.20;;;2.67;;
18172;SDS011;9211;48.818;9.312;2022-10-28T12:09:46;7.95;;;2.80;;
18172;SDS011;9211;48.818;9.312;2022-10-28T12:12:28;8.33;;;2.93;;
18172;SDS011;9211;48.818;9.312;2022-10-28T12:15:02;12.38;;;3.25;;
18172;SDS011;9211;48.818;9.312;2022-10-28T12:17:43;9.32;;;2.85;;
18172;SDS011;9211;48.818;9.312;2022-10-28T12:20:16;11.77;;;2.78;;
18172;SDS011;9211;48.818;9.312;2022-10-28T12:22:51;8.00;;;3.03;;
18172;SDS011;9211;48.818;9.312;2022-10-28T12:25:21;11.55;;;3.33;;
18172;SDS011;9211;48.818;9.312;2022-10-28T12:27:53;6.97;;;2.75;;
18172;SDS011;9211;48.818;9.312;2022-10-28T12:30:25;7.22;;;2.70;;
18172;SDS011;9211;48.818;9.312;2022-10-28T12:32:55;12.05;;;3.08;;
18172;SDS011;9211;48.818;9.312;2022-10-28T12:35:26;8.88;;;3.03;;
18172;SDS011;9211;48.818;9.312;2022-10-28T12:37:59;9.20;;;2.70;;
18172;SDS011;9211;48.818;9.312;2022-10-28T12:40:34;7.00;;;2.60;;
18172;SDS011;9211;48.818;9.312;2022-10-28T12:43:08;8.48;;;2.88;;
18172;SDS011;9211;48.818;9.312;2022-10-28T12:45:39;9.33;;;2.57;;
18172;SDS011;9211;48.818;9.312;2022-10-28T12:48:10;6.60;;;2.50;;
18172;SDS011;9211;48.818;9.312;2022-10-28T12:50:43;7.63;;;2.53;;
18172;SDS011;9211;48.818;9.312;2022-10-28T12:53:26;9.13;;;2.70;;
18172;SDS011;9211;48.818;9.312;2022-10-28T12:55:59;8.47;;;2.63;;
18172;SDS011;9211;48.818;9.312;2022-10-28T12:58:28;6.28;;;2.30;;
18172;SDS011;9211;48.818;9.312;2022-10-28T13:00:59;6.82;;;2.38;;
18172;SDS011;9211;48.818;9.312;2022-10-28T13:03:28;10.18;;;2.35;;
18172;SDS011;9211;48.818;9.312;2022-10-28T13:05:59;11.50;;;2.70;;
18172;SDS011;9211;48.818;9.312;2022-10-28T13:08:50;8.65;;;2.45;;
18172;SDS011;9211;48.818;9.312;2022-10-28T13:15:15;7.22;;;2.20;;
18172;SDS011;9211;48.818;9.312;2022-10-28T13:17:59;6.40;;;2.33;;
18172;SDS011;9211;48.818;9.312;2022-10-28T13:20:37;6.35;;;2.30;;
18172;SDS011;9211;48.818;9.312;2022-10-28T13:23:15;8.03;;;2.37;;
18172;SDS011;9211;48.818;9.312;2022-10-28T13:25:52;8.77;;;2.40;;
18172;SDS011;9211;48.818;9.312;2022-10-28T13:28:28;8.82;;;2.30;;
18172;SDS011;9211;48.818;9.312;2022-10-28T13:30:58;5.35;;;2.17;;
18172;SDS011;9211;48.818;9.312;2022-10-28T13:33:27;7.75;;;2.35;;
18172;SDS011;9211;48.818;9.312;2022-10-28T13:36:05;7.47;;;2.85;;
18172;SDS011;9211;48.818;9.312;2022-10-28T13:38:35;10.27;;;2.42;;
18172;SDS011;9211;48.818;9.312;2022-10-28T13:41:09;9.88;;;2.30;;
18172;SDS011;9211;48.818;9.312;2022-10-28T13:43:55;7.55;;;2.72;;
18172;SDS011;9211;48.818;9.312;2022-10-28T13:49:31;9.88;;;2.20;;
18172;SDS011;9211;48.818;9.312;2022-10-28T13:51:59;8.10;;;2.30;;
18172;SDS011;9211;48.818;9.312;2022-10-28T13:54:29;7.30;;;2.40;;
18172;SDS011;9211;48.818;9.312;2022-10-28T13:57:01;7.70;;;2.10;;
18172;SDS011;9211;48.818;9.312;2022-10-28T13:59:38;8.20;;;2.35;;
18172;SDS011;9211;48.818;9.312;2022-10-28T14:02:22;6.63;;;2.00;;
18172;SDS011;9211;48.818;9.312;2022-10-28T14:04:55;7.70;;;2.30;;
18172;SDS011;9211;48.818;9.312;2022-10-28T14:07:24;5.97;;;2.30;;
18172;SDS011;9211;48.818;9.312;2022-10-28T14:09:54;6.50;;;2.40;;
18172;SDS011;9211;48.818;9.312;2022-10-28T14:12:40;6.95;;;2.38;;
18172;SDS011;9211;48.818;9.312;2022-10-28T14:15:16;9.68;;;2.70;;
18172;SDS011;9211;48.818;9.312;2022-10-28T14:17:47;5.25;;;2.30;;
18172;SDS011;9211;48.818;9.312;2022-10-28T14:20:22;7.07;;;2.50;;
18172;SDS011;9211;48.818;9.312;2022-10-28T14:22:53;7.38;;;2.63;;
18172;SDS011;9211;48.818;9.312;2022-10-28T14:31:36;8.10;;;2.38;;
18172;SDS011;9211;48.818;9.312;2022-10-28T14:40:23;7.85;;;2.75;;
18172;SDS011;9211;48.818;9.312;2022-10-28T14:43:06;10.93;;;3.80;;
18172;SDS011;9211;48.818;9.312;2022-10-28T14:45:46;14.50;;;5.50;;
18172;SDS011;9211;48.818;9.312;2022-10-28T14:48:28;12.93;;;5.30;;
18172;SDS011;9211;48.818;9.312;2022-10-28T14:51:11;18.55;;;7.13;;
18172;SDS011;9211;48.818;9.312;2022-10-28T14:53:40;20.00;;;6.80;;
18172;SDS011;9211;48.818;9.312;2022-10-28T14:56:09;13.52;;;4.60;;
18172;SDS011;9211;48.818;9.312;2022-10-28T14:58:42;15.82;;;4.70;;
18172;SDS011;9211;48.818;9.312;2022-10-28T15:01:19;17.02;;;5.53;;
18172;SDS011;9211;48.818;9.312;2022-10-28T15:03:52;20.98;;;7.00;;
18172;SDS011;9211;48.818;9.312;2022-10-28T15:06:33;21.70;;;7.37;;
18172;SDS011;9211;48.818;9.312;2022-10-28T15:09:04;26.95;;;8.80;;
18172;SDS011;9211;48.818;9.312;2022-10-28T15:11:37;23.63;;;7.80;;
18172;SDS011;9211;48.818;9.312;2022-10-28T15:14:13;20.77;;;7.32;;
18172;SDS011;9211;48.818;9.312;2022-10-28T15:16:49;18.25;;;7.22;;
18172;SDS011;9211;48.818;9.312;2022-10-28T15:19:17;21.92;;;7.95;;
18172;SDS011;9211;48.818;9.312;2022-10-28T15:21:58;24.10;;;8.32;;
18172;SDS011;9211;48.818;9.312;2022-10-28T15:24:26;23.75;;;8.90;;
18172;SDS011;9211;48.818;9.312;2022-10-28T15:26:53;20.70;;;8.07;;
18172;SDS011;9211;48.818;9.312;2022-10-28T15:29:20;17.63;;;6.20;;
18172;SDS011;9211;48.818;9.312;2022-10-28T15:32:10;13.50;;;5.10;;
18172;SDS011;9211;48.818;9.312;2022-10-28T15:34:40;11.73;;;4.35;;
18172;SDS011;9211;48.818;9.312;2022-10-28T15:37:07;9.73;;;3.97;;
18172;SDS011;9211;48.818;9.312;2022-10-28T15:39:35;28.08;;;12.77;;
18172;SDS011;9211;48.818;9.312;2022-10-28T15:42:04;24.73;;;10.60;;
18172;SDS011;9211;48.818;9.312;2022-10-28T15:44:55;15.48;;;7.50;;
18172;SDS011;9211;48.818;9.312;2022-10-28T15:47:26;15.93;;;4.50;;
18172;SDS011;9211;48.818;9.312;2022-10-28T15:49:58;11.67;;;4.00;;
18172;SDS011;9211;48.818;9.312;2022-10-28T15:52:34;9.68;;;3.40;;
18172;SDS011;9211;48.818;9.312;2022-10-28T16:00:59;10.00;;;3.08;;